sensor_id;sensor_type;location;lat;lon;timestamp;P1;durP1;ratioP1;P2;durP2;ratioP2
32196;SDS011;18697;42.770;23.400;2023-05-20T00:00:05;13.70;;;10.02;;
32196;SDS011;18697;42.770;23.400;2023-05-20T00:02:32;13.05;;;8.52;;
32196;SDS011;18697;42.770;23.400;2023-05-20T00:04:57;8.68;;;6.40;;
32196;SDS011;18697;42.770;23.400;2023-05-20T00:07:22;17.05;;;8.45;;
32196;SDS011;18697;42.770;23.400;2023-05-20T00:09:48;12.43;;;8.07;;
32196;SDS011;18697;42.770;23.400;2023-05-20T00:12:13;13.23;;;9.20;;
32196;SDS011;18697;42.770;23.400;2023-05-20T00:14:39;8.82;;;5.85;;
32196;SDS011;18697;42.770;23.400;2023-05-20T00:17:04;14.05;;;9.63;;
32196;SDS011;18697;42.770;23.400;2023-05-20T00:19:30;15.10;;;9.55;;
32196;SDS011;18697;42.770;23.400;2023-05-20T00:21:55;13.43;;;7.32;;
32196;SDS011;18697;42.770;23.400;2023-05-20T00:24:22;16.13;;;10.30;;
32196;SDS011;18697;42.770;23.400;2023-05-20T00:26:48;12.10;;;8.85;;
32196;SDS011;18697;42.770;23.400;2023-05-20T00:29:13;14.88;;;9.77;;
32196;SDS011;18697;42.770;23.400;2023-05-20T00:31:39;14.90;;;10.40;;
32196;SDS011;18697;42.770;23.400;2023-05-20T00:34:04;12.40;;;8.05;;
32196;SDS011;18697;42.770;23.400;2023-05-20T00:36:29;14.30;;;9.10;;
32196;SDS011;18697;42.770;23.400;2023-05-20T00:38:55;14.48;;;9.25;;
32196;SDS011;18697;42.770;23.400;2023-05-20T00:41:21;15.85;;;9.45;;
32196;SDS011;18697;42.770;23.400;2023-05-20T00:43:46;13.48;;;9.93;;
32196;SDS011;18697;42.770;23.400;2023-05-20T00:46:12;14.02;;;9.57;;
32196;SDS011;18697;42.770;23.400;2023-05-20T00:48:41;12.68;;;7.93;;
32196;SDS011;18697;42.770;23.400;2023-05-20T00:51:08;11.57;;;8.77;;
32196;SDS011;18697;42.770;23.400;2023-05-20T00:53:35;15.23;;;9.07;;
32196;SDS011;18697;42.770;23.400;2023-05-20T00:56:01;10.80;;;8.15;;
32196;SDS011;18697;42.770;23.400;2023-05-20T00:58:27;13.50;;;8.55;;
32196;SDS011;18697;42.770;23.400;2023-05-20T01:00:53;11.85;;;8.30;;
32196;SDS011;18697;42.770;23.400;2023-05-20T01:03:19;15.32;;;7.75;;
32196;SDS011;18697;42.770;23.400;2023-05-20T01:05:45;10.75;;;7.70;;
32196;SDS011;18697;42.770;23.400;2023-05-20T01:08:10;12.35;;;7.20;;
32196;SDS011;18697;42.770;23.400;2023-05-20T01:10:36;12.98;;;8.63;;
32196;SDS011;18697;42.770;23.400;2023-05-20T01:13:07;10.05;;;7.50;;
32196;SDS011;18697;42.770;23.400;2023-05-20T01:15:39;11.20;;;7.32;;
32196;SDS011;18697;42.770;23.400;2023-05-20T01:18:08;9.43;;;7.03;;
32196;SDS011;18697;42.770;23.400;2023-05-20T01:20:34;11.70;;;6.97;;
32196;SDS011;18697;42.770;23.400;2023-05-20T01:23:02;11.65;;;7.30;;
32196;SDS011;18697;42.770;23.400;2023-05-20T01:25:28;14.02;;;7.25;;
32196;SDS011;18697;42.770;23.400;2023-05-20T01:27:53;12.85;;;7.47;;
32196;SDS011;18697;42.770;23.400;2023-05-20T01:30:21;9.25;;;6.82;;
32196;SDS011;18697;42.770;23.400;2023-05-20T01:32:50;11.57;;;7.15;;
32196;SDS011;18697;42.770;23.400;2023-05-20T01:35:19;8.57;;;6.53;;
32196;SDS011;18697;42.770;23.400;2023-05-20T01:37:46;11.80;;;7.45;;
32196;SDS011;18697;42.770;23.400;2023-05-20T01:40:13;8.95;;;6.82;;
32196;SDS011;18697;42.770;23.400;2023-05-20T01:42:40;12.98;;;7.53;;
32196;SDS011;18697;42.770;23.400;2023-05-20T01:45:07;8.95;;;7.03;;
32196;SDS011;18697;42.770;23.400;2023-05-20T01:47:32;9.75;;;7.22;;
32196;SDS011;18697;42.770;23.400;2023-05-20T01:49:58;14.35;;;7.82;;
32196;SDS011;18697;42.770;23.400;2023-05-20T01:52:23;12.07;;;6.93;;
32196;SDS011;18697;42.770;23.400;2023-05-20T01:54:49;11.23;;;6.90;;
32196;SDS011;18697;42.770;23.400;2023-05-20T01:57:17;10.68;;;6.95;;
32196;SDS011;18697;42.770;23.400;2023-05-20T01:59:44;12.10;;;6.70;;
32196;SDS011;18697;42.770;23.400;2023-05-20T02:02:09;10.65;;;6.55;;
32196;SDS011;18697;42.770;23.400;2023-05-20T02:04:35;10.20;;;7.15;;
32196;SDS011;18697;42.770;23.400;2023-05-20T02:07:00;9.93;;;7.15;;
32196;SDS011;18697;42.770;23.400;2023-05-20T02:09:26;9.75;;;6.47;;
32196;SDS011;18697;42.770;23.400;2023-05-20T02:11:52;10.27;;;7.07;;
32196;SDS011;18697;42.770;23.400;2023-05-20T02:14:18;9.40;;;6.70;;
32196;SDS011;18697;42.770;23.400;2023-05-20T02:16:44;10.73;;;6.53;;
32196;SDS011;18697;42.770;23.400;2023-05-20T02:19:10;9.63;;;6.50;;
32196;SDS011;18697;42.770;23.400;2023-05-20T02:21:38;13.10;;;6.60;;
32196;SDS011;18697;42.770;23.400;2023-05-20T02:24:04;10.00;;;6.32;;
32196;SDS011;18697;42.770;23.400;2023-05-20T02:26:30;9.23;;;6.45;;
32196;SDS011;18697;42.770;23.400;2023-05-20T02:28:55;8.18;;;6.38;;
32196;SDS011;18697;42.770;23.400;2023-05-20T02:31:20;11.40;;;7.00;;
32196;SDS011;18697;42.770;23.400;2023-05-20T02:33:46;11.35;;;7.18;;
32196;SDS011;18697;42.770;23.400;2023-05-20T02:36:12;8.88;;;6.55;;
32196;SDS011;18697;42.770;23.400;2023-05-20T02:38:37;9.07;;;6.63;;
32196;SDS011;18697;42.770;23.400;2023-05-20T02:41:03;8.93;;;6.13;;
32196;SDS011;18697;42.770;23.400;2023-05-20T02:43:29;8.65;;;6.50;;
32196;SDS011;18697;42.770;23.400;2023-05-20T02:45:56;9.82;;;7.03;;
32196;SDS011;18697;42.770;23.400;2023-05-20T02:48:21;12.32;;;6.97;;
32196;SDS011;18697;42.770;23.400;2023-05-20T02:50:46;8.30;;;5.95;;
32196;SDS011;18697;42.770;23.400;2023-05-20T02:53:12;8.70;;;6.60;;
32196;SDS011;18697;42.770;23.400;2023-05-20T02:55:38;11.18;;;6.38;;
32196;SDS011;18697;42.770;23.400;2023-05-20T02:58:04;8.68;;;6.18;;
32196;SDS011;18697;42.770;23.400;2023-05-20T03:00:30;9.02;;;7.07;;
32196;SDS011;18697;42.770;23.400;2023-05-20T03:02:56;9.90;;;6.93;;
32196;SDS011;18697;42.770;23.400;2023-05-20T03:05:21;10.70;;;7.38;;
32196;SDS011;18697;42.770;23.400;2023-05-20T03:07:47;10.10;;;6.78;;
32196;SDS011;18697;42.770;23.400;2023-05-20T03:10:13;9.00;;;6.88;;
32196;SDS011;18697;42.770;23.400;2023-05-20T03:12:39;12.13;;;6.55;;
32196;SDS011;18697;42.770;23.400;2023-05-20T03:15:11;11.18;;;7.13;;
32196;SDS011;18697;42.770;23.400;2023-05-20T03:17:36;10.02;;;6.93;;
32196;SDS011;18697;42.770;23.400;2023-05-20T03:20:01;10.77;;;7.55;;
32196;SDS011;18697;42.770;23.400;2023-05-20T03:22:31;20.25;;;8.38;;
32196;SDS011;18697;42.770;23.400;2023-05-20T03:24:56;15.38;;;7.95;;
32196;SDS011;18697;42.770;23.400;2023-05-20T03:27:22;10.13;;;7.78;;
32196;SDS011;18697;42.770;23.400;2023-05-20T03:29:50;13.82;;;7.18;;
32196;SDS011;18697;42.770;23.400;2023-05-20T03:32:18;14.65;;;8.07;;
32196;SDS011;18697;42.770;23.400;2023-05-20T03:34:44;11.45;;;7.90;;
32196;SDS011;18697;42.770;23.400;2023-05-20T03:37:09;11.80;;;8.43;;
32196;SDS011;18697;42.770;23.400;2023-05-20T03:39:35;17.20;;;7.50;;
32196;SDS011;18697;42.770;23.400;2023-05-20T03:42:00;12.85;;;7.55;;
32196;SDS011;18697;42.770;23.400;2023-05-20T03:44:25;11.38;;;8.13;;
32196;SDS011;18697;42.770;23.400;2023-05-20T03:46:51;11.65;;;8.77;;
32196;SDS011;18697;42.770;23.400;2023-05-20T03:49:16;13.30;;;8.20;;
32196;SDS011;18697;42.770;23.400;2023-05-20T03:51:41;15.88;;;8.43;;
32196;SDS011;18697;42.770;23.400;2023-05-20T03:54:07;9.80;;;7.53;;
32196;SDS011;18697;42.770;23.400;2023-05-20T03:56:32;13.27;;;8.00;;
32196;SDS011;18697;42.770;23.400;2023-05-20T03:58:58;10.50;;;7.72;;
32196;SDS011;18697;42.770;23.400;2023-05-20T04:01:23;12.20;;;7.85;;
32196;SDS011;18697;42.770;23.400;2023-05-20T04:03:49;12.00;;;7.13;;
32196;SDS011;18697;42.770;23.400;2023-05-20T04:06:15;15.27;;;8.68;;
32196;SDS011;18697;42.770;23.400;2023-05-20T04:08:40;12.05;;;8.77;;
32196;SDS011;18697;42.770;23.400;2023-05-20T04:11:06;15.70;;;9.20;;
32196;SDS011;18697;42.770;23.400;2023-05-20T04:13:32;16.20;;;8.52;;
32196;SDS011;18697;42.770;23.400;2023-05-20T04:15:57;19.67;;;8.65;;
32196;SDS011;18697;42.770;23.400;2023-05-20T04:18:25;15.05;;;9.88;;
32196;SDS011;18697;42.770;23.400;2023-05-20T04:20:54;22.67;;;10.75;;
32196;SDS011;18697;42.770;23.400;2023-05-20T04:23:23;12.05;;;8.07;;
32196;SDS011;18697;42.770;23.400;2023-05-20T04:25:48;12.93;;;7.47;;
32196;SDS011;18697;42.770;23.400;2023-05-20T04:28:13;13.32;;;7.90;;
32196;SDS011;18697;42.770;23.400;2023-05-20T04:30:40;11.30;;;7.82;;
32196;SDS011;18697;42.770;23.400;2023-05-20T04:33:06;11.32;;;7.53;;
32196;SDS011;18697;42.770;23.400;2023-05-20T04:35:32;10.00;;;6.85;;
32196;SDS011;18697;42.770;23.400;2023-05-20T04:37:59;10.05;;;6.25;;
32196;SDS011;18697;42.770;23.400;2023-05-20T04:40:25;11.50;;;7.18;;
32196;SDS011;18697;42.770;23.400;2023-05-20T04:42:51;11.13;;;7.15;;
32196;SDS011;18697;42.770;23.400;2023-05-20T04:45:16;9.13;;;7.20;;
32196;SDS011;18697;42.770;23.400;2023-05-20T04:47:42;10.77;;;6.78;;
32196;SDS011;18697;42.770;23.400;2023-05-20T04:50:09;9.75;;;7.57;;
32196;SDS011;18697;42.770;23.400;2023-05-20T04:52:35;23.90;;;8.80;;
32196;SDS011;18697;42.770;23.400;2023-05-20T04:55:02;15.15;;;8.20;;
32196;SDS011;18697;42.770;23.400;2023-05-20T04:57:27;15.25;;;8.15;;
32196;SDS011;18697;42.770;23.400;2023-05-20T04:59:53;17.10;;;11.40;;
32196;SDS011;18697;42.770;23.400;2023-05-20T05:02:22;15.50;;;9.13;;
32196;SDS011;18697;42.770;23.400;2023-05-20T05:04:48;15.75;;;8.98;;
32196;SDS011;18697;42.770;23.400;2023-05-20T05:07:13;17.75;;;12.15;;
32196;SDS011;18697;42.770;23.400;2023-05-20T05:09:39;24.50;;;11.45;;
32196;SDS011;18697;42.770;23.400;2023-05-20T05:12:04;16.38;;;10.57;;
32196;SDS011;18697;42.770;23.400;2023-05-20T05:14:30;15.35;;;9.75;;
32196;SDS011;18697;42.770;23.400;2023-05-20T05:16:55;18.45;;;11.05;;
32196;SDS011;18697;42.770;23.400;2023-05-20T05:19:21;15.93;;;10.90;;
32196;SDS011;18697;42.770;23.400;2023-05-20T05:21:46;18.85;;;9.98;;
32196;SDS011;18697;42.770;23.400;2023-05-20T05:24:12;22.88;;;12.05;;
32196;SDS011;18697;42.770;23.400;2023-05-20T05:29:03;16.60;;;9.95;;
32196;SDS011;18697;42.770;23.400;2023-05-20T05:31:29;19.60;;;11.00;;
32196;SDS011;18697;42.770;23.400;2023-05-20T05:33:54;24.08;;;10.57;;
32196;SDS011;18697;42.770;23.400;2023-05-20T05:36:20;19.50;;;11.98;;
32196;SDS011;18697;42.770;23.400;2023-05-20T05:38:48;17.40;;;11.48;;
32196;SDS011;18697;42.770;23.400;2023-05-20T05:41:13;17.20;;;12.10;;
32196;SDS011;18697;42.770;23.400;2023-05-20T05:43:39;14.77;;;11.38;;
32196;SDS011;18697;42.770;23.400;2023-05-20T05:46:04;20.15;;;11.93;;
32196;SDS011;18697;42.770;23.400;2023-05-20T05:50:55;18.63;;;12.75;;
32196;SDS011;18697;42.770;23.400;2023-05-20T05:55:45;19.67;;;12.25;;
32196;SDS011;18697;42.770;23.400;2023-05-20T05:58:11;23.33;;;12.75;;
32196;SDS011;18697;42.770;23.400;2023-05-20T06:03:02;18.80;;;11.70;;
32196;SDS011;18697;42.770;23.400;2023-05-20T06:05:27;16.95;;;10.90;;
32196;SDS011;18697;42.770;23.400;2023-05-20T06:07:53;22.80;;;12.90;;
32196;SDS011;18697;42.770;23.400;2023-05-20T06:10:18;18.65;;;11.48;;
32196;SDS011;18697;42.770;23.400;2023-05-20T06:12:44;17.02;;;11.05;;
32196;SDS011;18697;42.770;23.400;2023-05-20T06:15:09;23.58;;;12.02;;
32196;SDS011;18697;42.770;23.400;2023-05-20T06:17:35;20.20;;;11.90;;
32196;SDS011;18697;42.770;23.400;2023-05-20T06:20:00;21.48;;;10.55;;
32196;SDS011;18697;42.770;23.400;2023-05-20T06:22:25;13.23;;;10.18;;
32196;SDS011;18697;42.770;23.400;2023-05-20T06:24:52;15.35;;;10.43;;
32196;SDS011;18697;42.770;23.400;2023-05-20T06:27:18;19.27;;;10.90;;
32196;SDS011;18697;42.770;23.400;2023-05-20T06:29:43;17.67;;;11.35;;
32196;SDS011;18697;42.770;23.400;2023-05-20T06:32:08;16.85;;;11.52;;
32196;SDS011;18697;42.770;23.400;2023-05-20T06:34:34;18.45;;;11.95;;
32196;SDS011;18697;42.770;23.400;2023-05-20T06:36:59;20.52;;;10.98;;
32196;SDS011;18697;42.770;23.400;2023-05-20T06:39:24;17.88;;;11.20;;
32196;SDS011;18697;42.770;23.400;2023-05-20T06:41:50;17.48;;;11.48;;
32196;SDS011;18697;42.770;23.400;2023-05-20T06:44:16;18.25;;;10.93;;
32196;SDS011;18697;42.770;23.400;2023-05-20T06:46:41;15.57;;;11.65;;
32196;SDS011;18697;42.770;23.400;2023-05-20T06:49:07;14.02;;;10.38;;
32196;SDS011;18697;42.770;23.400;2023-05-20T06:51:32;18.92;;;10.55;;
32196;SDS011;18697;42.770;23.400;2023-05-20T06:53:57;16.58;;;9.98;;
32196;SDS011;18697;42.770;23.400;2023-05-20T06:56:23;16.73;;;9.93;;
32196;SDS011;18697;42.770;23.400;2023-05-20T06:58:48;17.50;;;10.75;;
32196;SDS011;18697;42.770;23.400;2023-05-20T07:01:14;17.02;;;10.20;;
32196;SDS011;18697;42.770;23.400;2023-05-20T07:03:42;13.73;;;9.90;;
32196;SDS011;18697;42.770;23.400;2023-05-20T07:06:08;12.63;;;9.60;;
32196;SDS011;18697;42.770;23.400;2023-05-20T07:08:34;15.07;;;9.60;;
32196;SDS011;18697;42.770;23.400;2023-05-20T07:10:59;19.30;;;10.13;;
32196;SDS011;18697;42.770;23.400;2023-05-20T07:13:25;13.07;;;10.15;;
32196;SDS011;18697;42.770;23.400;2023-05-20T07:15:50;13.05;;;8.82;;
32196;SDS011;18697;42.770;23.400;2023-05-20T07:18:16;17.63;;;9.85;;
32196;SDS011;18697;42.770;23.400;2023-05-20T07:20:41;12.63;;;8.27;;
32196;SDS011;18697;42.770;23.400;2023-05-20T07:23:07;15.32;;;8.60;;
32196;SDS011;18697;42.770;23.400;2023-05-20T07:25:32;12.93;;;8.70;;
32196;SDS011;18697;42.770;23.400;2023-05-20T07:27:58;11.63;;;8.48;;
32196;SDS011;18697;42.770;23.400;2023-05-20T07:30:24;13.88;;;8.85;;
32196;SDS011;18697;42.770;23.400;2023-05-20T07:32:50;16.38;;;8.25;;
32196;SDS011;18697;42.770;23.400;2023-05-20T07:35:16;10.38;;;7.18;;
32196;SDS011;18697;42.770;23.400;2023-05-20T07:37:41;14.82;;;7.80;;
32196;SDS011;18697;42.770;23.400;2023-05-20T07:40:07;11.38;;;7.18;;
32196;SDS011;18697;42.770;23.400;2023-05-20T07:42:33;12.48;;;6.93;;
32196;SDS011;18697;42.770;23.400;2023-05-20T07:44:59;12.43;;;6.97;;
32196;SDS011;18697;42.770;23.400;2023-05-20T07:47:24;11.52;;;7.32;;
32196;SDS011;18697;42.770;23.400;2023-05-20T07:49:50;9.05;;;6.28;;
32196;SDS011;18697;42.770;23.400;2023-05-20T07:52:15;10.05;;;6.82;;
32196;SDS011;18697;42.770;23.400;2023-05-20T07:54:41;8.77;;;6.97;;
32196;SDS011;18697;42.770;23.400;2023-05-20T07:57:06;12.15;;;6.43;;
32196;SDS011;18697;42.770;23.400;2023-05-20T07:59:32;9.15;;;6.93;;
32196;SDS011;18697;42.770;23.400;2023-05-20T08:01:57;7.30;;;6.22;;
32196;SDS011;18697;42.770;23.400;2023-05-20T08:04:23;8.82;;;6.35;;
32196;SDS011;18697;42.770;23.400;2023-05-20T08:06:49;7.95;;;6.22;;
32196;SDS011;18697;42.770;23.400;2023-05-20T08:09:15;7.80;;;5.20;;
32196;SDS011;18697;42.770;23.400;2023-05-20T08:11:40;10.25;;;5.50;;
32196;SDS011;18697;42.770;23.400;2023-05-20T08:14:05;7.45;;;5.70;;
32196;SDS011;18697;42.770;23.400;2023-05-20T08:16:31;7.80;;;5.15;;
32196;SDS011;18697;42.770;23.400;2023-05-20T08:18:56;7.05;;;5.88;;
32196;SDS011;18697;42.770;23.400;2023-05-20T08:21:22;8.45;;;5.32;;
32196;SDS011;18697;42.770;23.400;2023-05-20T08:23:47;6.88;;;5.07;;
32196;SDS011;18697;42.770;23.400;2023-05-20T08:26:13;9.35;;;5.55;;
32196;SDS011;18697;42.770;23.400;2023-05-20T08:28:38;10.30;;;5.45;;
32196;SDS011;18697;42.770;23.400;2023-05-20T08:31:04;12.25;;;6.20;;
32196;SDS011;18697;42.770;23.400;2023-05-20T08:33:29;10.07;;;5.05;;
32196;SDS011;18697;42.770;23.400;2023-05-20T08:35:55;7.43;;;5.47;;
32196;SDS011;18697;42.770;23.400;2023-05-20T08:38:20;10.30;;;5.60;;
32196;SDS011;18697;42.770;23.400;2023-05-20T08:40:50;7.03;;;5.57;;
32196;SDS011;18697;42.770;23.400;2023-05-20T08:43:20;7.38;;;5.35;;
32196;SDS011;18697;42.770;23.400;2023-05-20T08:45:46;7.53;;;5.32;;
32196;SDS011;18697;42.770;23.400;2023-05-20T08:48:13;6.53;;;5.30;;
32196;SDS011;18697;42.770;23.400;2023-05-20T08:50:41;8.32;;;5.32;;
32196;SDS011;18697;42.770;23.400;2023-05-20T08:53:08;7.47;;;5.18;;
32196;SDS011;18697;42.770;23.400;2023-05-20T08:58:07;7.68;;;5.50;;
32196;SDS011;18697;42.770;23.400;2023-05-20T09:00:33;6.88;;;5.07;;
32196;SDS011;18697;42.770;23.400;2023-05-20T09:02:59;7.57;;;5.40;;
32196;SDS011;18697;42.770;23.400;2023-05-20T09:05:25;8.88;;;6.00;;
32196;SDS011;18697;42.770;23.400;2023-05-20T09:07:51;13.55;;;5.20;;
32196;SDS011;18697;42.770;23.400;2023-05-20T09:10:16;7.35;;;6.30;;
32196;SDS011;18697;42.770;23.400;2023-05-20T09:12:44;8.50;;;5.80;;
32196;SDS011;18697;42.770;23.400;2023-05-20T09:15:09;9.65;;;5.75;;
32196;SDS011;18697;42.770;23.400;2023-05-20T09:17:35;8.00;;;5.60;;
32196;SDS011;18697;42.770;23.400;2023-05-20T09:20:04;7.93;;;5.70;;
32196;SDS011;18697;42.770;23.400;2023-05-20T09:22:34;10.55;;;5.57;;
32196;SDS011;18697;42.770;23.400;2023-05-20T09:25:00;8.50;;;5.78;;
32196;SDS011;18697;42.770;23.400;2023-05-20T09:27:26;9.23;;;5.70;;
32196;SDS011;18697;42.770;23.400;2023-05-20T09:29:51;7.38;;;5.25;;
32196;SDS011;18697;42.770;23.400;2023-05-20T09:32:17;10.15;;;5.35;;
32196;SDS011;18697;42.770;23.400;2023-05-20T09:34:47;8.00;;;5.80;;
32196;SDS011;18697;42.770;23.400;2023-05-20T09:37:13;6.13;;;5.10;;
32196;SDS011;18697;42.770;23.400;2023-05-20T09:39:56;8.50;;;5.15;;
32196;SDS011;18697;42.770;23.400;2023-05-20T09:42:30;9.63;;;5.75;;
32196;SDS011;18697;42.770;23.400;2023-05-20T09:45:04;9.88;;;5.68;;
32196;SDS011;18697;42.770;23.400;2023-05-20T09:47:36;7.97;;;5.38;;
32196;SDS011;18697;42.770;23.400;2023-05-20T09:50:05;7.13;;;4.88;;
32196;SDS011;18697;42.770;23.400;2023-05-20T09:52:36;7.05;;;4.97;;
32196;SDS011;18697;42.770;23.400;2023-05-20T09:55:02;8.60;;;4.47;;
32196;SDS011;18697;42.770;23.400;2023-05-20T09:57:36;7.65;;;5.10;;
32196;SDS011;18697;42.770;23.400;2023-05-20T10:00:03;9.32;;;5.18;;
32196;SDS011;18697;42.770;23.400;2023-05-20T10:02:30;8.88;;;4.70;;
32196;SDS011;18697;42.770;23.400;2023-05-20T10:04:57;7.00;;;5.05;;
32196;SDS011;18697;42.770;23.400;2023-05-20T10:24:33;6.00;;;4.57;;
32196;SDS011;18697;42.770;23.400;2023-05-20T10:27:06;4.72;;;4.20;;
32196;SDS011;18697;42.770;23.400;2023-05-20T10:29:41;9.80;;;4.35;;
32196;SDS011;18697;42.770;23.400;2023-05-20T10:32:07;5.95;;;4.25;;
32196;SDS011;18697;42.770;23.400;2023-05-20T10:34:43;7.43;;;4.68;;
32196;SDS011;18697;42.770;23.400;2023-05-20T10:37:29;7.43;;;4.70;;
32196;SDS011;18697;42.770;23.400;2023-05-20T10:40:04;7.50;;;4.90;;
32196;SDS011;18697;42.770;23.400;2023-05-20T10:42:29;6.80;;;4.93;;
32196;SDS011;18697;42.770;23.400;2023-05-20T10:44:55;5.55;;;4.38;;
32196;SDS011;18697;42.770;23.400;2023-05-20T10:47:20;7.43;;;4.40;;
32196;SDS011;18697;42.770;23.400;2023-05-20T10:49:46;7.57;;;4.53;;
32196;SDS011;18697;42.770;23.400;2023-05-20T10:52:18;7.43;;;4.72;;
32196;SDS011;18697;42.770;23.400;2023-05-20T10:55:02;4.90;;;4.25;;
32196;SDS011;18697;42.770;23.400;2023-05-20T10:57:28;6.97;;;4.38;;
32196;SDS011;18697;42.770;23.400;2023-05-20T10:59:56;5.43;;;4.45;;
32196;SDS011;18697;42.770;23.400;2023-05-20T11:02:21;7.20;;;4.38;;
32196;SDS011;18697;42.770;23.400;2023-05-20T11:04:50;8.43;;;4.35;;
32196;SDS011;18697;42.770;23.400;2023-05-20T11:07:23;5.45;;;4.40;;
32196;SDS011;18697;42.770;23.400;2023-05-20T11:09:50;5.72;;;4.32;;
32196;SDS011;18697;42.770;23.400;2023-05-20T11:12:15;5.95;;;4.60;;
32196;SDS011;18697;42.770;23.400;2023-05-20T11:14:41;7.93;;;4.80;;
32196;SDS011;18697;42.770;23.400;2023-05-20T11:17:06;12.05;;;4.32;;
32196;SDS011;18697;42.770;23.400;2023-05-20T11:19:32;6.72;;;4.85;;
32196;SDS011;18697;42.770;23.400;2023-05-20T11:21:57;7.25;;;4.45;;
32196;SDS011;18697;42.770;23.400;2023-05-20T11:24:26;8.57;;;4.22;;
32196;SDS011;18697;42.770;23.400;2023-05-20T11:26:56;8.82;;;4.68;;
32196;SDS011;18697;42.770;23.400;2023-05-20T11:29:22;6.03;;;4.35;;
32196;SDS011;18697;42.770;23.400;2023-05-20T11:31:50;5.95;;;4.45;;
32196;SDS011;18697;42.770;23.400;2023-05-20T11:34:20;6.97;;;4.20;;
32196;SDS011;18697;42.770;23.400;2023-05-20T11:36:46;8.00;;;4.03;;
32196;SDS011;18697;42.770;23.400;2023-05-20T11:39:14;5.57;;;3.90;;
32196;SDS011;18697;42.770;23.400;2023-05-20T11:41:43;7.50;;;4.80;;
32196;SDS011;18697;42.770;23.400;2023-05-20T11:44:09;8.48;;;4.22;;
32196;SDS011;18697;42.770;23.400;2023-05-20T11:46:40;5.03;;;4.18;;
32196;SDS011;18697;42.770;23.400;2023-05-20T11:49:10;7.97;;;4.78;;
32196;SDS011;18697;42.770;23.400;2023-05-20T11:51:37;6.38;;;4.60;;
32196;SDS011;18697;42.770;23.400;2023-05-20T11:54:04;8.15;;;4.35;;
32196;SDS011;18697;42.770;23.400;2023-05-20T11:56:34;4.15;;;3.78;;
32196;SDS011;18697;42.770;23.400;2023-05-20T11:59:03;5.57;;;4.15;;
32196;SDS011;18697;42.770;23.400;2023-05-20T12:01:31;7.38;;;4.43;;
32196;SDS011;18697;42.770;23.400;2023-05-20T12:03:58;6.07;;;4.25;;
32196;SDS011;18697;42.770;23.400;2023-05-20T12:06:23;7.95;;;5.00;;
32196;SDS011;18697;42.770;23.400;2023-05-20T12:08:49;7.22;;;5.10;;
32196;SDS011;18697;42.770;23.400;2023-05-20T12:11:15;10.55;;;4.70;;
32196;SDS011;18697;42.770;23.400;2023-05-20T12:13:40;6.85;;;5.18;;
32196;SDS011;18697;42.770;23.400;2023-05-20T12:16:06;10.25;;;5.07;;
32196;SDS011;18697;42.770;23.400;2023-05-20T12:18:31;7.93;;;4.15;;
32196;SDS011;18697;42.770;23.400;2023-05-20T12:21:00;8.95;;;4.85;;
32196;SDS011;18697;42.770;23.400;2023-05-20T12:23:25;5.68;;;4.38;;
32196;SDS011;18697;42.770;23.400;2023-05-20T12:25:53;9.93;;;4.38;;
32196;SDS011;18697;42.770;23.400;2023-05-20T12:28:18;11.13;;;3.67;;
32196;SDS011;18697;42.770;23.400;2023-05-20T12:30:44;4.88;;;3.00;;
32196;SDS011;18697;42.770;23.400;2023-05-20T12:33:09;10.13;;;3.50;;
32196;SDS011;18697;42.770;23.400;2023-05-20T12:35:38;4.45;;;3.63;;
32196;SDS011;18697;42.770;23.400;2023-05-20T12:38:05;5.93;;;3.53;;
32196;SDS011;18697;42.770;23.400;2023-05-20T12:40:31;4.28;;;3.70;;
32196;SDS011;18697;42.770;23.400;2023-05-20T12:42:57;5.00;;;3.17;;
32196;SDS011;18697;42.770;23.400;2023-05-20T12:45:23;5.88;;;3.70;;
32196;SDS011;18697;42.770;23.400;2023-05-20T12:47:48;4.25;;;3.28;;
32196;SDS011;18697;42.770;23.400;2023-05-20T12:50:14;4.80;;;3.92;;
32196;SDS011;18697;42.770;23.400;2023-05-20T12:52:39;6.20;;;3.85;;
32196;SDS011;18697;42.770;23.400;2023-05-20T12:55:05;7.32;;;3.92;;
32196;SDS011;18697;42.770;23.400;2023-05-20T12:57:37;7.82;;;4.13;;
32196;SDS011;18697;42.770;23.400;2023-05-20T13:00:04;6.65;;;3.92;;
32196;SDS011;18697;42.770;23.400;2023-05-20T13:02:30;8.18;;;3.88;;
32196;SDS011;18697;42.770;23.400;2023-05-20T13:04:55;8.65;;;3.83;;
32196;SDS011;18697;42.770;23.400;2023-05-20T13:07:21;4.95;;;3.80;;
32196;SDS011;18697;42.770;23.400;2023-05-20T13:09:46;6.55;;;4.65;;
32196;SDS011;18697;42.770;23.400;2023-05-20T13:12:12;8.82;;;4.15;;
32196;SDS011;18697;42.770;23.400;2023-05-20T13:14:37;6.05;;;3.80;;
32196;SDS011;18697;42.770;23.400;2023-05-20T13:17:03;9.05;;;5.03;;
32196;SDS011;18697;42.770;23.400;2023-05-20T13:19:28;6.72;;;4.35;;
32196;SDS011;18697;42.770;23.400;2023-05-20T13:21:54;4.43;;;3.95;;
32196;SDS011;18697;42.770;23.400;2023-05-20T13:24:19;5.72;;;3.92;;
32196;SDS011;18697;42.770;23.400;2023-05-20T13:26:45;5.68;;;3.63;;
32196;SDS011;18697;42.770;23.400;2023-05-20T13:29:11;6.70;;;4.25;;
32196;SDS011;18697;42.770;23.400;2023-05-20T13:31:37;6.72;;;4.30;;
32196;SDS011;18697;42.770;23.400;2023-05-20T13:34:02;6.03;;;3.92;;
32196;SDS011;18697;42.770;23.400;2023-05-20T13:36:28;5.85;;;4.05;;
32196;SDS011;18697;42.770;23.400;2023-05-20T13:38:53;5.88;;;3.58;;
32196;SDS011;18697;42.770;23.400;2023-05-20T13:41:19;4.20;;;3.80;;
32196;SDS011;18697;42.770;23.400;2023-05-20T13:43:44;10.18;;;3.80;;
32196;SDS011;18697;42.770;23.400;2023-05-20T13:46:10;5.90;;;3.63;;
32196;SDS011;18697;42.770;23.400;2023-05-20T13:48:35;7.43;;;3.60;;
32196;SDS011;18697;42.770;23.400;2023-05-20T13:51:01;6.28;;;3.75;;
32196;SDS011;18697;42.770;23.400;2023-05-20T13:53:27;5.90;;;3.58;;
32196;SDS011;18697;42.770;23.400;2023-05-20T13:55:53;5.53;;;3.60;;
32196;SDS011;18697;42.770;23.400;2023-05-20T13:58:18;4.40;;;3.97;;
32196;SDS011;18697;42.770;23.400;2023-05-20T14:00:44;8.07;;;3.10;;
32196;SDS011;18697;42.770;23.400;2023-05-20T14:03:09;5.90;;;3.60;;
32196;SDS011;18697;42.770;23.400;2023-05-20T14:05:35;5.50;;;4.18;;
32196;SDS011;18697;42.770;23.400;2023-05-20T14:08:01;4.63;;;4.03;;
32196;SDS011;18697;42.770;23.400;2023-05-20T14:10:26;6.35;;;4.22;;
32196;SDS011;18697;42.770;23.400;2023-05-20T14:12:52;7.00;;;4.22;;
32196;SDS011;18697;42.770;23.400;2023-05-20T14:15:18;5.25;;;4.68;;
32196;SDS011;18697;42.770;23.400;2023-05-20T14:17:44;6.30;;;4.43;;
32196;SDS011;18697;42.770;23.400;2023-05-20T14:20:10;5.75;;;4.53;;
32196;SDS011;18697;42.770;23.400;2023-05-20T14:22:36;5.65;;;4.28;;
32196;SDS011;18697;42.770;23.400;2023-05-20T14:25:01;16.42;;;7.55;;
32196;SDS011;18697;42.770;23.400;2023-05-20T14:27:27;7.95;;;4.68;;
32196;SDS011;18697;42.770;23.400;2023-05-20T14:29:54;6.47;;;5.10;;
32196;SDS011;18697;42.770;23.400;2023-05-20T14:32:19;5.88;;;4.60;;
32196;SDS011;18697;42.770;23.400;2023-05-20T14:34:44;8.52;;;4.72;;
32196;SDS011;18697;42.770;23.400;2023-05-20T14:37:10;9.07;;;4.90;;
32196;SDS011;18697;42.770;23.400;2023-05-20T14:39:36;9.65;;;5.47;;
32196;SDS011;18697;42.770;23.400;2023-05-20T14:42:02;8.57;;;5.35;;
32196;SDS011;18697;42.770;23.400;2023-05-20T14:44:28;8.25;;;5.70;;
32196;SDS011;18697;42.770;23.400;2023-05-20T14:46:54;10.05;;;6.10;;
32196;SDS011;18697;42.770;23.400;2023-05-20T14:49:19;11.70;;;5.47;;